sensor_id;sensor_type;location;lat;lon;timestamp;temperature;humidity
39277;DHT22;63149;48.086;-1.606;2022-11-02T06:02:01;8.60;99.90
39277;DHT22;63149;48.086;-1.606;2022-11-02T06:11:49;8.60;99.90
39277;DHT22;63149;48.086;-1.606;2022-11-02T06:14:15;8.60;99.90
39277;DHT22;63149;48.086;-1.606;2022-11-02T06:16:42;8.50;99.90
39277;DHT22;63149;48.086;-1.606;2022-11-02T06:19:10;8.50;99.90
39277;DHT22;63149;48.086;-1.606;2022-11-02T06:21:37;8.50;99.90
39277;DHT22;63149;48.086;-1.606;2022-11-02T06:24:03;8.60;99.90
39277;DHT22;63149;48.086;-1.606;2022-11-02T06:26:30;8.60;99.90
39277;DHT22;63149;48.086;-1.606;2022-11-02T06:28:57;8.60;99.90
39277;DHT22;63149;48.086;-1.606;2022-11-02T06:31:24;8.60;99.90
39277;DHT22;63149;48.086;-1.606;2022-11-02T06:33:50;8.60;99.90
39277;DHT22;63149;48.086;-1.606;2022-11-02T06:36:18;8.60;99.90
39277;DHT22;63149;48.086;-1.606;2022-11-02T06:38:45;8.60;99.90
39277;DHT22;63149;48.086;-1.606;2022-11-02T06:41:12;8.60;99.90
39277;DHT22;63149;48.086;-1.606;2022-11-02T06:43:39;8.60;99.90
39277;DHT22;63149;48.086;-1.606;2022-11-02T06:46:06;8.60;99.90
39277;DHT22;63149;48.086;-1.606;2022-11-02T06:48:32;8.60;99.90
39277;DHT22;63149;48.086;-1.606;2022-11-02T06:50:59;8.60;99.90
39277;DHT22;63149;48.086;-1.606;2022-11-02T06:53:27;8.60;99.90
39277;DHT22;63149;48.086;-1.606;2022-11-02T06:55:54;8.60;99.90
39277;DHT22;63149;48.086;-1.606;2022-11-02T06:58:22;8.60;99.90
39277;DHT22;63149;48.086;-1.606;2022-11-02T07:00:48;8.60;99.90
39277;DHT22;63149;48.086;-1.606;2022-11-02T07:03:15;8.60;99.90
39277;DHT22;63149;48.086;-1.606;2022-11-02T07:05:46;8.60;99.90
39277;DHT22;63149;48.086;-1.606;2022-11-02T07:08:14;8.60;99.90
39277;DHT22;63149;48.086;-1.606;2022-11-02T07:10:42;8.60;99.90
39277;DHT22;63149;48.086;-1.606;2022-11-02T07:13:09;8.70;99.90
39277;DHT22;63149;48.086;-1.606;2022-11-02T07:15:36;8.70;99.90
39277;DHT22;63149;48.086;-1.606;2022-11-02T07:18:04;8.70;99.90
39277;DHT22;63149;48.086;-1.606;2022-11-02T07:20:32;8.70;99.90
39277;DHT22;63149;48.086;-1.606;2022-11-02T07:23:00;8.70;99.90
39277;DHT22;63149;48.086;-1.606;2022-11-02T07:25:27;8.70;99.90
39277;DHT22;63149;48.086;-1.606;2022-11-02T07:27:56;8.80;99.90
39277;DHT22;63149;48.086;-1.606;2022-11-02T07:30:24;8.80;99.90
39277;DHT22;63149;48.086;-1.606;2022-11-02T07:32:51;8.80;99.90
39277;DHT22;63149;48.086;-1.606;2022-11-02T07:35:18;8.80;99.90
39277;DHT22;63149;48.086;-1.606;2022-11-02T07:37:53;8.90;99.90
39277;DHT22;63149;48.086;-1.606;2022-11-02T07:40:19;8.90;99.90
39277;DHT22;63149;48.086;-1.606;2022-11-02T07:42:46;8.90;99.90
39277;DHT22;63149;48.086;-1.606;2022-11-02T07:45:15;9.00;99.90
39277;DHT22;63149;48.086;-1.606;2022-11-02T07:47:42;9.00;99.90
39277;DHT22;63149;48.086;-1.606;2022-11-02T07:50:09;9.00;99.90
39277;DHT22;63149;48.086;-1.606;2022-11-02T07:52:42;9.10;99.90
39277;DHT22;63149;48.086;-1.606;2022-11-02T07:55:08;9.10;99.90
39277;DHT22;63149;48.086;-1.606;2022-11-02T07:57:35;9.10;99.90
39277;DHT22;63149;48.086;-1.606;2022-11-02T08:00:02;9.20;99.90
39277;DHT22;63149;48.086;-1.606;2022-11-02T08:02:30;9.20;99.90
39277;DHT22;63149;48.086;-1.606;2022-11-02T08:04:57;9.20;99.90
39277;DHT22;63149;48.086;-1.606;2022-11-02T08:07:23;9.20;99.90
39277;DHT22;63149;48.086;-1.606;2022-11-02T08:09:50;9.30;99.90
39277;DHT22;63149;48.086;-1.606;2022-11-02T08:12:17;9.40;99.90
39277;DHT22;63149;48.086;-1.606;2022-11-02T08:14:44;9.40;99.90
39277;DHT22;63149;48.086;-1.606;2022-11-02T08:17:10;9.40;99.90
39277;DHT22;63149;48.086;-1.606;2022-11-02T08:19:38;9.50;99.90
39277;DHT22;63149;48.086;-1.606;2022-11-02T08:22:05;9.50;99.90
39277;DHT22;63149;48.086;-1.606;2022-11-02T08:24:32;9.50;99.90
39277;DHT22;63149;48.086;-1.606;2022-11-02T08:26:59;9.60;99.90
39277;DHT22;63149;48.086;-1.606;2022-11-02T08:29:26;9.60;99.90
39277;DHT22;63149;48.086;-1.606;2022-11-02T08:31:53;9.70;99.90
39277;DHT22;63149;48.086;-1.606;2022-11-02T08:34:19;9.70;99.90
39277;DHT22;63149;48.086;-1.606;2022-11-02T08:36:47;9.70;99.90
39277;DHT22;63149;48.086;-1.606;2022-11-02T08:39:14;9.80;99.90
39277;DHT22;63149;48.086;-1.606;2022-11-02T08:41:41;9.90;99.90
39277;DHT22;63149;48.086;-1.606;2022-11-02T08:44:08;9.90;99.90
39277;DHT22;63149;48.086;-1.606;2022-11-02T08:46:34;10.00;99.90
39277;DHT22;63149;48.086;-1.606;2022-11-02T08:49:01;10.10;99.90
39277;DHT22;63149;48.086;-1.606;2022-11-02T08:51:28;10.10;99.90
39277;DHT22;63149;48.086;-1.606;2022-11-02T08:53:56;10.20;99.90
39277;DHT22;63149;48.086;-1.606;2022-11-02T08:56:23;10.20;99.90
39277;DHT22;63149;48.086;-1.606;2022-11-02T08:58:49;10.40;99.90
39277;DHT22;63149;48.086;-1.606;2022-11-02T09:01:16;10.40;99.90
39277;DHT22;63149;48.086;-1.606;2022-11-02T09:03:43;10.40;99.90
39277;DHT22;63149;48.086;-1.606;2022-11-02T09:06:09;10.50;99.90
39277;DHT22;63149;48.086;-1.606;2022-11-02T09:08:36;10.60;99.90
39277;DHT22;63149;48.086;-1.606;2022-11-02T09:11:04;10.60;99.90
39277;DHT22;63149;48.086;-1.606;2022-11-02T09:13:31;10.70;99.90
39277;DHT22;63149;48.086;-1.606;2022-11-02T09:15:58;10.80;99.90
39277;DHT22;63149;48.086;-1.606;2022-11-02T09:18:25;10.90;99.90
39277;DHT22;63149;48.086;-1.606;2022-11-02T09:20:52;10.90;99.90
39277;DHT22;63149;48.086;-1.606;2022-11-02T09:23:19;11.10;99.90
39277;DHT22;63149;48.086;-1.606;2022-11-02T09:25:46;11.20;99.90
39277;DHT22;63149;48.086;-1.606;2022-11-02T09:28:15;11.30;99.90
39277;DHT22;63149;48.086;-1.606;2022-11-02T09:30:41;11.30;99.90
39277;DHT22;63149;48.086;-1.606;2022-11-02T09:33:08;11.40;99.90
39277;DHT22;63149;48.086;-1.606;2022-11-02T09:35:36;11.60;99.90
39277;DHT22;63149;48.086;-1.606;2022-11-02T09:38:03;11.70;99.90
39277;DHT22;63149;48.086;-1.606;2022-11-02T09:40:34;11.70;99.90
39277;DHT22;63149;48.086;-1.606;2022-11-02T09:43:03;11.90;99.90
39277;DHT22;63149;48.086;-1.606;2022-11-02T09:45:33;12.00;99.90
39277;DHT22;63149;48.086;-1.606;2022-11-02T09:48:02;12.10;99.90
39277;DHT22;63149;48.086;-1.606;2022-11-02T09:50:35;12.30;99.90
39277;DHT22;63149;48.086;-1.606;2022-11-02T09:53:04;12.30;99.90
39277;DHT22;63149;48.086;-1.606;2022-11-02T09:55:34;12.40;99.90
39277;DHT22;63149;48.086;-1.606;2022-11-02T09:58:02;12.50;99.90
39277;DHT22;63149;48.086;-1.606;2022-11-02T10:00:34;12.60;99.90
39277;DHT22;63149;48.086;-1.606;2022-11-02T10:03:04;12.80;99.90
39277;DHT22;63149;48.086;-1.606;2022-11-02T10:05:37;12.90;99.90
39277;DHT22;63149;48.086;-1.606;2022-11-02T10:08:08;13.00;99.90
39277;DHT22;63149;48.086;-1.606;2022-11-02T10:10:36;13.10;99.90
39277;DHT22;63149;48.086;-1.606;2022-11-02T10:13:06;13.20;99.90
39277;DHT22;63149;48.086;-1.606;2022-11-02T10:15:38;13.20;99.90
39277;DHT22;63149;48.086;-1.606;2022-11-02T10:18:07;13.30;99.90
39277;DHT22;63149;48.086;-1.606;2022-11-02T10:20:39;13.30;99.90
39277;DHT22;63149;48.086;-1.606;2022-11-02T10:23:08;13.30;99.90
39277;DHT22;63149;48.086;-1.606;2022-11-02T10:25:36;13.40;99.90
39277;DHT22;63149;48.086;-1.606;2022-11-02T10:28:08;13.40;99.90
39277;DHT22;63149;48.086;-1.606;2022-11-02T10:30:35;13.50;99.90
39277;DHT22;63149;48.086;-1.606;2022-11-02T10:33:04;13.50;99.90
39277;DHT22;63149;48.086;-1.606;2022-11-02T10:35:37;13.50;99.90
39277;DHT22;63149;48.086;-1.606;2022-11-02T10:38:10;13.50;99.90
39277;DHT22;63149;48.086;-1.606;2022-11-02T10:40:56;13.60;99.90
39277;DHT22;63149;48.086;-1.606;2022-11-02T10:43:31;13.60;99.90
39277;DHT22;63149;48.086;-1.606;2022-11-02T10:46:15;13.70;99.90
39277;DHT22;63149;48.086;-1.606;2022-11-02T10:48:50;13.70;99.90
39277;DHT22;63149;48.086;-1.606;2022-11-02T10:51:18;13.80;99.90
39277;DHT22;63149;48.086;-1.606;2022-11-02T10:53:47;13.90;99.90
39277;DHT22;63149;48.086;-1.606;2022-11-02T10:56:14;13.90;99.90
39277;DHT22;63149;48.086;-1.606;2022-11-02T10:58:43;14.00;99.90
39277;DHT22;63149;48.086;-1.606;2022-11-02T11:01:11;14.00;99.90
39277;DHT22;63149;48.086;-1.606;2022-11-02T11:03:53;14.10;99.90
39277;DHT22;63149;48.086;-1.606;2022-11-02T11:06:20;14.10;99.90
39277;DHT22;63149;48.086;-1.606;2022-11-02T11:08:48;14.20;99.90
39277;DHT22;63149;48.086;-1.606;2022-11-02T11:11:18;14.20;99.90
39277;DHT22;63149;48.086;-1.606;2022-11-02T11:13:51;14.30;99.90
39277;DHT22;63149;48.086;-1.606;2022-11-02T11:16:28;14.30;99.90
39277;DHT22;63149;48.086;-1.606;2022-11-02T11:18:57;14.40;99.90
39277;DHT22;63149;48.086;-1.606;2022-11-02T11:21:28;14.40;99.90
39277;DHT22;63149;48.086;-1.606;2022-11-02T11:24:05;14.50;99.90
39277;DHT22;63149;48.086;-1.606;2022-11-02T11:26:37;14.60;99.90
39277;DHT22;63149;48.086;-1.606;2022-11-02T11:29:08;14.60;99.90
39277;DHT22;63149;48.086;-1.606;2022-11-02T11:31:45;14.60;99.90
39277;DHT22;63149;48.086;-1.606;2022-11-02T11:34:20;14.70;99.90
39277;DHT22;63149;48.086;-1.606;2022-11-02T11:36:48;14.80;99.90
39277;DHT22;63149;48.086;-1.606;2022-11-02T11:39:20;14.90;99.90
39277;DHT22;63149;48.086;-1.606;2022-11-02T11:41:49;14.90;99.90
39277;DHT22;63149;48.086;-1.606;2022-11-02T11:44:16;15.00;99.90
39277;DHT22;63149;48.086;-1.606;2022-11-02T11:46:43;15.00;99.90
39277;DHT22;63149;48.086;-1.606;2022-11-02T11:49:16;15.10;99.90
39277;DHT22;63149;48.086;-1.606;2022-11-02T11:51:47;15.10;99.90
39277;DHT22;63149;48.086;-1.606;2022-11-02T11:54:17;15.20;99.90
39277;DHT22;63149;48.086;-1.606;2022-11-02T11:56:44;15.30;99.90
39277;DHT22;63149;48.086;-1.606;2022-11-02T11:59:22;15.40;99.90
39277;DHT22;63149;48.086;-1.606;2022-11-02T12:01:49;15.40;99.90
39277;DHT22;63149;48.086;-1.606;2022-11-02T12:04:25;15.60;99.90
39277;DHT22;63149;48.086;-1.606;2022-11-02T12:06:56;15.60;99.90
39277;DHT22;63149;48.086;-1.606;2022-11-02T12:09:25;15.60;99.90
39277;DHT22;63149;48.086;-1.606;2022-11-02T12:11:56;15.70;99.90
39277;DHT22;63149;48.086;-1.606;2022-11-02T12:14:31;15.70;99.90
39277;DHT22;63149;48.086;-1.606;2022-11-02T12:22:32;15.80;99.90
39277;DHT22;63149;48.086;-1.606;2022-11-02T12:25:12;15.80;99.90
39277;DHT22;63149;48.086;-1.606;2022-11-02T12:27:44;15.70;99.90
39277;DHT22;63149;48.086;-1.606;2022-11-02T12:30:14;15.70;99.90
39277;DHT22;63149;48.086;-1.606;2022-11-02T12:32:46;15.60;99.90
39277;DHT22;63149;48.086;-1.606;2022-11-02T12:35:30;15.60;99.90
39277;DHT22;63149;48.086;-1.606;2022-11-02T12:40:52;15.60;99.90
39277;DHT22;63149;48.086;-1.606;2022-11-02T12:43:23;15.60;99.90
39277;DHT22;63149;48.086;-1.606;2022-11-02T12:45:57;15.60;99.90
39277;DHT22;63149;48.086;-1.606;2022-11-02T12:48:28;15.60;99.90
39277;DHT22;63149;48.086;-1.606;2022-11-02T12:51:01;15.50;99.90
39277;DHT22;63149;48.086;-1.606;2022-11-02T12:53:33;15.50;99.90
39277;DHT22;63149;48.086;-1.606;2022-11-02T12:56:05;15.40;99.90
39277;DHT22;63149;48.086;-1.606;2022-11-02T12:58:33;15.40;99.90
39277;DHT22;63149;48.086;-1.606;2022-11-02T13:01:01;15.30;99.90
39277;DHT22;63149;48.086;-1.606;2022-11-02T13:03:33;15.30;99.90
39277;DHT22;63149;48.086;-1.606;2022-11-02T13:06:02;15.30;99.90
39277;DHT22;63149;48.086;-1.606;2022-11-02T13:08:33;15.20;99.90
39277;DHT22;63149;48.086;-1.606;2022-11-02T13:11:03;15.10;99.90
39277;DHT22;63149;48.086;-1.606;2022-11-02T13:13:32;15.10;99.90
39277;DHT22;63149;48.086;-1.606;2022-11-02T13:16:01;15.00;99.90
39277;DHT22;63149;48.086;-1.606;2022-11-02T13:18:29;15.00;99.90
39277;DHT22;63149;48.086;-1.606;2022-11-02T13:20:56;14.90;99.90
39277;DHT22;63149;48.086;-1.606;2022-11-02T13:23:27;14.90;99.90
39277;DHT22;63149;48.086;-1.606;2022-11-02T13:25:58;14.90;99.90
39277;DHT22;63149;48.086;-1.606;2022-11-02T13:28:28;14.90;99.90
39277;DHT22;63149;48.086;-1.606;2022-11-02T13:30:58;14.80;99.90
39277;DHT22;63149;48.086;-1.606;2022-11-02T13:33:28;14.80;99.90
39277;DHT22;63149;48.086;-1.606;2022-11-02T13:35:55;14.80;99.90
39277;DHT22;63149;48.086;-1.606;2022-11-02T13:38:24;14.80;99.90
39277;DHT22;63149;48.086;-1.606;2022-11-02T13:40:55;14.90;99.90
39277;DHT22;63149;48.086;-1.606;2022-11-02T13:43:33;14.90;99.90
39277;DHT22;63149;48.086;-1.606;2022-11-02T13:46:09;14.90;99.90
39277;DHT22;63149;48.086;-1.606;2022-11-02T13:51:26;15.00;99.90
39277;DHT22;63149;48.086;-1.606;2022-11-02T13:53:54;15.00;99.90
39277;DHT22;63149;48.086;-1.606;2022-11-02T13:56:24;15.10;99.90
39277;DHT22;63149;48.086;-1.606;2022-11-02T13:58:52;15.10;99.90
39277;DHT22;63149;48.086;-1.606;2022-11-02T14:01:21;15.10;99.90
39277;DHT22;63149;48.086;-1.606;2022-11-02T14:03:49;15.10;99.90
39277;DHT22;63149;48.086;-1.606;2022-11-02T14:06:17;15.10;99.90
39277;DHT22;63149;48.086;-1.606;2022-11-02T14:08:48;15.20;99.90
39277;DHT22;63149;48.086;-1.606;2022-11-02T14:11:22;15.20;99.90
39277;DHT22;63149;48.086;-1.606;2022-11-02T14:14:05;15.20;99.90
39277;DHT22;63149;48.086;-1.606;2022-11-02T14:16:40;15.30;99.90
39277;DHT22;63149;48.086;-1.606;2022-11-02T14:19:20;15.30;99.90
39277;DHT22;63149;48.086;-1.606;2022-11-02T14:22:07;15.30;99.90
39277;DHT22;63149;48.086;-1.606;2022-11-02T14:27:29;15.30;99.90
39277;DHT22;63149;48.086;-1.606;2022-11-02T14:29:56;15.30;99.90
39277;DHT22;63149;48.086;-1.606;2022-11-02T14:32:39;15.30;99.90
39277;DHT22;63149;48.086;-1.606;2022-11-02T14:35:18;15.30;99.90
39277;DHT22;63149;48.086;-1.606;2022-11-02T14:38:04;15.40;99.90
39277;DHT22;63149;48.086;-1.606;2022-11-02T14:40:34;15.40;99.90
39277;DHT22;63149;48.086;-1.606;2022-11-02T14:43:12;15.40;99.90
39277;DHT22;63149;48.086;-1.606;2022-11-02T14:45:45;15.40;99.90
39277;DHT22;63149;48.086;-1.606;2022-11-02T14:48:18;15.40;99.90
39277;DHT22;63149;48.086;-1.606;2022-11-02T14:50:55;15.40;99.90
39277;DHT22;63149;48.086;-1.606;2022-11-02T14:53:23;15.40;99.90
39277;DHT22;63149;48.086;-1.606;2022-11-02T14:55:51;15.40;99.90
39277;DHT22;63149;48.086;-1.606;2022-11-02T14:58:19;15.40;99.90
39277;DHT22;63149;48.086;-1.606;2022-11-02T15:00:53;15.40;99.90
39277;DHT22;63149;48.086;-1.606;2022-11-02T15:03:27;15.40;99.90
39277;DHT22;63149;48.086;-1.606;2022-11-02T15:05:57;15.40;99.90
39277;DHT22;63149;48.086;-1.606;2022-11-02T15:08:25;15.40;99.90
39277;DHT22;63149;48.086;-1.606;2022-11-02T15:10:53;15.40;99.90
39277;DHT22;63149;48.086;-1.606;2022-11-02T15:13:33;15.40;99.90
39277;DHT22;63149;48.086;-1.606;2022-11-02T15:18:47;15.40;99.90
39277;DHT22;63149;48.086;-1.606;2022-11-02T15:21:23;15.40;99.90
39277;DHT22;63149;48.086;-1.606;2022-11-02T15:24:02;15.40;99.90
39277;DHT22;63149;48.086;-1.606;2022-11-02T15:26:31;15.40;99.90
39277;DHT22;63149;48.086;-1.606;2022-11-02T15:29:01;15.40;99.90
39277;DHT22;63149;48.086;-1.606;2022-11-02T15:31:29;15.40;99.90
39277;DHT22;63149;48.086;-1.606;2022-11-02T15:34:01;15.40;99.90
39277;DHT22;63149;48.086;-1.606;2022-11-02T15:36:29;15.40;99.90
39277;DHT22;63149;48.086;-1.606;2022-11-02T15:38:59;15.40;99.90
39277;DHT22;63149;48.086;-1.606;2022-11-02T15:41:29;15.40;99.90
39277;DHT22;63149;48.086;-1.606;2022-11-02T15:44:09;15.40;99.90
39277;DHT22;63149;48.086;-1.606;2022-11-02T15:46:41;15.40;99.90
39277;DHT22;63149;48.086;-1.606;2022-11-02T15:49:15;15.40;99.90
39277;DHT22;63149;48.086;-1.606;2022-11-02T15:51:46;15.30;99.90
39277;DHT22;63149;48.086;-1.606;2022-11-02T15:54:19;15.30;99.90
39277;DHT22;63149;48.086;-1.606;2022-11-02T15:59:33;15.30;99.90
39277;DHT22;63149;48.086;-1.606;2022-11-02T16:02:11;15.30;99.90
39277;DHT22;63149;48.086;-1.606;2022-11-02T16:04:44;15.30;99.90
39277;DHT22;63149;48.086;-1.606;2022-11-02T16:07:11;15.30;99.90
39277;DHT22;63149;48.086;-1.606;2022-11-02T16:09:39;15.30;99.90
39277;DHT22;63149;48.086;-1.606;2022-11-02T16:12:09;15.30;99.90
39277;DHT22;63149;48.086;-1.606;2022-11-02T16:14:37;15.30;99.90
39277;DHT22;63149;48.086;-1.606;2022-11-02T16:17:04;15.30;99.90
39277;DHT22;63149;48.086;-1.606;2022-11-02T16:19:31;15.30;99.90
39277;DHT22;63149;48.086;-1.606;2022-11-02T16:21:59;15.30;99.90
39277;DHT22;63149;48.086;-1.606;2022-11-02T16:24:25;15.20;99.90
39277;DHT22;63149;48.086;-1.606;2022-11-02T16:26:53;15.20;99.90
39277;DHT22;63149;48.086;-1.606;2022-11-02T16:29:21;15.20;99.90
39277;DHT22;63149;48.086;-1.606;2022-11-02T16:31:50;15.20;99.90
39277;DHT22;63149;48.086;-1.606;2022-11-02T16:34:18;15.20;99.90
39277;DHT22;63149;48.086;-1.606;2022-11-02T16:36:45;15.10;99.90
39277;DHT22;63149;48.086;-1.606;2022-11-02T16:39:14;15.10;99.90
39277;DHT22;63149;48.086;-1.606;2022-11-02T16:41:44;15.10;99.90
39277;DHT22;63149;48.086;-1.606;2022-11-02T16:44:15;15.00;99.90
39277;DHT22;63149;48.086;-1.606;2022-11-02T16:46:46;15.00;99.90
39277;DHT22;63149;48.086;-1.606;2022-11-02T16:49:15;15.00;99.90
39277;DHT22;63149;48.086;-1.606;2022-11-02T16:51:47;14.90;99.90
39277;DHT22;63149;48.086;-1.606;2022-11-02T16:54:24;14.90;99.90
39277;DHT22;63149;48.086;-1.606;2022-11-02T16:56:52;14.90;99.90
39277;DHT22;63149;48.086;-1.606;2022-11-02T16:59:19;14.90;99.90
39277;DHT22;63149;48.086;-1.606;2022-11-02T17:01:47;14.90;99.90
39277;DHT22;63149;48.086;-1.606;2022-11-02T17:04:14;14.80;99.90
39277;DHT22;63149;48.086;-1.606;2022-11-02T17:06:43;14.80;99.90
39277;DHT22;63149;48.086;-1.606;2022-11-02T17:09:14;14.80;99.90
39277;DHT22;63149;48.086;-1.606;2022-11-02T17:11:47;14.80;99.90
39277;DHT22;63149;48.086;-1.606;2022-11-02T17:14:14;14.80;99.90
39277;DHT22;63149;48.086;-1.606;2022-11-02T17:16:54;14.80;99.90
39277;DHT22;63149;48.086;-1.606;2022-11-02T17:22:03;14.70;99.90
39277;DHT22;63149;48.086;-1.606;2022-11-02T17:24:35;14.70;99.90
39277;DHT22;63149;48.086;-1.606;2022-11-02T17:29:48;14.60;99.90
39277;DHT22;63149;48.086;-1.606;2022-11-02T17:32:15;14.60;99.90
39277;DHT22;63149;48.086;-1.606;2022-11-02T17:34:48;14.60;99.90
39277;DHT22;63149;48.086;-1.606;2022-11-02T17:37:22;14.60;99.90
39277;DHT22;63149;48.086;-1.606;2022-11-02T17:39:49;14.60;99.90
39277;DHT22;63149;48.086;-1.606;2022-11-02T17:42:16;14.60;99.90
39277;DHT22;63149;48.086;-1.606;2022-11-02T17:47:44;14.60;99.90
39277;DHT22;63149;48.086;-1.606;2022-11-02T17:50:10;14.50;99.90
39277;DHT22;63149;48.086;-1.606;2022-11-02T17:52:37;14.50;99.90
39277;DHT22;63149;48.086;-1.606;2022-11-02T17:55:04;14.50;99.90
39277;DHT22;63149;48.086;-1.606;2022-11-02T17:57:31;14.50;99.90
39277;DHT22;63149;48.086;-1.606;2022-11-02T17:59:58;14.50;99.90
39277;DHT22;63149;48.086;-1.606;2022-11-02T18:02:25;14.50;99.90
39277;DHT22;63149;48.086;-1.606;2022-11-02T18:04:53;14.50;99.90
39277;DHT22;63149;48.086;-1.606;2022-11-02T18:07:19;14.50;99.90
39277;DHT22;63149;48.086;-1.606;2022-11-02T18:09:46;14.50;99.90
39277;DHT22;63149;48.086;-1.606;2022-11-02T18:12:13;14.50;99.90
39277;DHT22;63149;48.086;-1.606;2022-11-02T18:14:40;14.50;99.90
39277;DHT22;63149;48.086;-1.606;2022-11-02T18:17:07;14.40;99.90
39277;DHT22;63149;48.086;-1.606;2022-11-02T18:19:34;14.50;99.90
39277;DHT22;63149;48.086;-1.606;2022-11-02T18:22:02;14.40;99.90
39277;DHT22;63149;48.086;-1.606;2022-11-02T18:24:29;14.40;99.90
39277;DHT22;63149;48.086;-1.606;2022-11-02T18:26:55;14.40;99.90
39277;DHT22;63149;48.086;-1.606;2022-11-02T18:29:22;14.40;99.90
39277;DHT22;63149;48.086;-1.606;2022-11-02T18:31:49;14.40;99.90
39277;DHT22;63149;48.086;-1.606;2022-11-02T18:34:15;14.40;99.90
39277;DHT22;63149;48.086;-1.606;2022-11-02T18:36:42;14.40;99.90
39277;DHT22;63149;48.086;-1.606;2022-11-02T18:39:10;14.40;99.90
39277;DHT22;63149;48.086;-1.606;2022-11-02T18:41:37;14.30;99.90
39277;DHT22;63149;48.086;-1.606;2022-11-02T18:44:04;14.40;99.90
39277;DHT22;63149;48.086;-1.606;2022-11-02T18:46:32;14.40;99.90
39277;DHT22;63149;48.086;-1.606;2022-11-02T18:48:59;14.40;99.90
39277;DHT22;63149;48.086;-1.606;2022-11-02T18:51:26;14.30;99.90
39277;DHT22;63149;48.086;-1.606;2022-11-02T18:53:55;14.40;99.90
39277;DHT22;63149;48.086;-1.606;2022-11-02T18:56:24;14.40;99.90
39277;DHT22;63149;48.086;-1.606;2022-11-02T18:58:51;14.30;99.90
39277;DHT22;63149;48.086;-1.606;2022-11-02T19:01:18;14.30;99.90
39277;DHT22;63149;48.086;-1.606;2022-11-02T19:03:48;14.30;99.90
39277;DHT22;63149;48.086;-1.606;2022-11-02T19:06:16;14.30;99.90
39277;DHT22;63149;48.086;-1.606;2022-11-02T19:09:00;14.30;99.90
39277;DHT22;63149;48.086;-1.606;2022-11-02T19:11:47;14.30;99.90
39277;DHT22;63149;48.086;-1.606;2022-11-02T19:14:15;14.30;99.90
39277;DHT22;63149;48.086;-1.606;2022-11-02T19:16:41;14.40;99.90
39277;DHT22;63149;48.086;-1.606;2022-11-02T19:19:08;14.40;99.90
39277;DHT22;63149;48.086;-1.606;2022-11-02T19:21:35;14.30;99.90
39277;DHT22;63149;48.086;-1.606;2022-11-02T19:24:02;14.30;99.90
39277;DHT22;63149;48.086;-1.606;2022-11-02T19:26:29;14.30;99.90
39277;DHT22;63149;48.086;-1.606;2022-11-02T19:28:57;14.30;99.90
39277;DHT22;63149;48.086;-1.606;2022-11-02T19:31:24;14.30;99.90
39277;DHT22;63149;48.086;-1.606;2022-11-02T19:33:51;14.30;99.90
39277;DHT22;63149;48.086;-1.606;2022-11-02T19:36:19;14.30;99.90
39277;DHT22;63149;48.086;-1.606;2022-11-02T19:38:45;14.30;99.90
39277;DHT22;63149;48.086;-1.606;2022-11-02T19:41:13;14.30;99.90
39277;DHT22;63149;48.086;-1.606;2022-11-02T19:43:40;14.30;99.90
39277;DHT22;63149;48.086;-1.606;2022-11-02T19:46:10;14.30;99.90
39277;DHT22;63149;48.086;-1.606;2022-11-02T19:48:37;14.30;99.90
39277;DHT22;63149;48.086;-1.606;2022-11-02T19:51:05;14.30;99.90
39277;DHT22;63149;48.086;-1.606;2022-11-02T19:53:32;14.30;99.90
39277;DHT22;63149;48.086;-1.606;2022-11-02T19:55:58;14.30;99.90
39277;DHT22;63149;48.086;-1.606;2022-11-02T19:58:25;14.30;99.90
39277;DHT22;63149;48.086;-1.606;2022-11-02T20:00:52;14.30;99.90
39277;DHT22;63149;48.086;-1.606;2022-11-02T20:03:20;14.20;99.90
39277;DHT22;63149;48.086;-1.606;2022-11-02T20:05:47;14.30;99.90
39277;DHT22;63149;48.086;-1.606;2022-11-02T20:08:13;14.30;99.90
39277;DHT22;63149;48.086;-1.606;2022-11-02T20:10:40;14.20;99.90
39277;DHT22;63149;48.086;-1.606;2022-11-02T20:13:07;14.20;99.90
39277;DHT22;63149;48.086;-1.606;2022-11-02T20:15:34;14.20;99.90
39277;DHT22;63149;48.086;-1.606;2022-11-02T20:18:02;14.20;99.90
39277;DHT22;63149;48.086;-1.606;2022-11-02T20:20:30;14.20;99.90
39277;DHT22;63149;48.086;-1.606;2022-11-02T20:22:57;14.20;99.90
39277;DHT22;63149;48.086;-1.606;2022-11-02T20:25:23;14.20;99.90
39277;DHT22;63149;48.086;-1.606;2022-11-02T20:27:50;14.20;99.90
39277;DHT22;63149;48.086;-1.606;2022-11-02T20:30:17;14.20;99.90
39277;DHT22;63149;48.086;-1.606;2022-11-02T20:32:46;14.20;99.90
39277;DHT22;63149;48.086;-1.606;2022-11-02T20:35:13;14.20;99.90
39277;DHT22;63149;48.086;-1.606;2022-11-02T20:37:43;14.20;99.90
39277;DHT22;63149;48.086;-1.606;2022-11-02T20:40:10;14.20;99.90
39277;DHT22;63149;48.086;-1.606;2022-11-02T20:42:37;14.20;99.90
39277;DHT22;63149;48.086;-1.606;2022-11-02T20:45:04;14.20;99.90
39277;DHT22;63149;48.086;-1.606;2022-11-02T20:47:31;14.20;99.90
39277;DHT22;63149;48.086;-1.606;2022-11-02T20:49:58;14.20;99.90
39277;DHT22;63149;48.086;-1.606;2022-11-02T20:52:25;14.20;99.90
39277;DHT22;63149;48.086;-1.606;2022-11-02T20:54:53;14.20;99.90
39277;DHT22;63149;48.086;-1.606;2022-11-02T20:57:20;14.10;99.90
39277;DHT22;63149;48.086;-1.606;2022-11-02T20:59:47;14.20;99.90
39277;DHT22;63149;48.086;-1.606;2022-11-02T21:02:14;14.10;99.90
39277;DHT22;63149;48.086;-1.606;2022-11-02T21:04:40;14.20;99.90
39277;DHT22;63149;48.086;-1.606;2022-11-02T21:07:07;14.10;99.90
39277;DHT22;63149;48.086;-1.606;2022-11-02T21:09:34;14.10;99.90
39277;DHT22;63149;48.086;-1.606;2022-11-02T21:12:02;14.10;99.90
39277;DHT22;63149;48.086;-1.606;2022-11-02T21:14:46;14.10;99.90
39277;DHT22;63149;48.086;-1.606;2022-11-02T21:17:13;14.10;99.90
39277;DHT22;63149;48.086;-1.606;2022-11-02T21:19:40;14.10;99.90
39277;DHT22;63149;48.086;-1.606;2022-11-02T21:22:07;14.10;99.90
39277;DHT22;63149;48.086;-1.606;2022-11-02T21:24:34;14.10;99.90
39277;DHT22;63149;48.086;-1.606;2022-11-02T21:27:02;14.10;99.90
39277;DHT22;63149;48.086;-1.606;2022-11-02T21:29:31;14.10;99.90
39277;DHT22;63149;48.086;-1.606;2022-11-02T21:31:57;14.00;99.90
39277;DHT22;63149;48.086;-1.606;2022-11-02T21:34:24;14.00;99.90
39277;DHT22;63149;48.086;-1.606;2022-11-02T21:36:51;14.10;99.90
39277;DHT22;63149;48.086;-1.606;2022-11-02T21:39:18;14.10;99.90
39277;DHT22;63149;48.086;-1.606;2022-11-02T21:41:45;14.00;99.90
39277;DHT22;63149;48.086;-1.606;2022-11-02T21:44:13;14.10;99.90
39277;DHT22;63149;48.086;-1.606;2022-11-02T21:46:39;14.10;99.90
39277;DHT22;63149;48.086;-1.606;2022-11-02T21:49:06;14.10;99.90
39277;DHT22;63149;48.086;-1.606;2022-11-02T21:51:33;14.10;99.90
39277;DHT22;63149;48.086;-1.606;2022-11-02T21:54:01;14.10;99.90
39277;DHT22;63149;48.086;-1.606;2022-11-02T21:56:28;14.10;99.90
39277;DHT22;63149;48.086;-1.606;2022-11-02T21:58:56;14.10;99.90
39277;DHT22;63149;48.086;-1.606;2022-11-02T22:01:24;14.10;99.90
39277;DHT22;63149;48.086;-1.606;2022-11-02T22:04:09;14.10;99.90
39277;DHT22;63149;48.086;-1.606;2022-11-02T22:06:36;14.10;99.90